Time;durP1;ratioP1;P1;durP2;ratioP2;P2;SDS_P1;SDS_P2;PMS_P1;PMS_P2;Temp;Humidity;BMP_temperature;BMP_pressure;BME280_temperature;BME280_humidity;BME280_pressure;Samples;Min_cycle;Max_cycle;Signal;HPM_P1;HPM_P2
2023/05/28 00:00:14;;;;;;;22.40;8.75;;;;;;;;;;5019831;28;20245;-74
2023/05/28 00:02:39;;;;;;;19.55;9.20;;;;;;;;;;5041055;28;20194;-73
2023/05/28 00:05:05;;;;;;;21.67;8.57;;;;;;;;;;5033195;28;20193;-74
2023/05/28 00:07:31;;;;;;;22.92;8.35;;;;;;;;;;5025766;28;20189;-73
2023/05/28 00:09:57;;;;;;;20.05;7.63;;;;;;;;;;5029349;28;20197;-73
2023/05/28 00:12:23;;;;;;;17.55;8.73;;;;;;;;;;5029473;28;20218;-73
2023/05/28 00:14:49;;;;;;;21.75;8.65;;;;;;;;;;5026884;28;20269;-73
2023/05/28 00:17:15;;;;;;;19.35;8.45;;;;;;;;;;5027174;28;20653;-74
2023/05/28 00:19:41;;;;;;;20.23;8.50;;;;;;;;;;5016129;28;20183;-73
2023/05/28 00:22:07;;;;;;;25.67;8.73;;;;;;;;;;5017949;28;20186;-73
2023/05/28 00:24:32;;;;;;;19.92;9.00;;;;;;;;;;5033763;28;20342;-73
2023/05/28 00:26:57;;;;;;;21.88;8.75;;;;;;;;;;5030020;28;20196;-73
2023/05/28 00:29:26;;;;;;;24.23;8.60;;;;;;;;;;5032886;28;20213;-73
2023/05/28 00:31:55;;;;;;;31.27;9.70;;;;;;;;;;5030689;28;20341;-73
2023/05/28 00:34:20;;;;;;;21.17;8.38;;;;;;;;;;5022794;28;20182;-73
2023/05/28 00:36:46;;;;;;;23.67;9.35;;;;;;;;;;5032835;28;20337;-73
2023/05/28 00:39:11;;;;;;;22.52;9.20;;;;;;;;;;5028199;28;20252;-73
2023/05/28 00:41:38;;;;;;;24.55;8.65;;;;;;;;;;5027824;28;20201;-73
2023/05/28 00:44:03;;;;;;;19.80;8.35;;;;;;;;;;5029949;28;20187;-73
2023/05/28 00:46:29;;;;;;;17.00;9.00;;;;;;;;;;5040338;28;20244;-73
2023/05/28 00:48:55;;;;;;;22.05;8.57;;;;;;;;;;5041077;28;20289;-73
2023/05/28 00:51:20;;;;;;;21.45;8.95;;;;;;;;;;5035943;28;20206;-73
2023/05/28 00:53:46;;;;;;;18.73;8.35;;;;;;;;;;5033154;28;20621;-73
2023/05/28 00:56:12;;;;;;;21.88;8.60;;;;;;;;;;5040173;28;20640;-73
2023/05/28 00:58:43;;;;;;;28.80;9.15;;;;;;;;;;5025788;28;20293;-73
2023/05/28 01:01:10;;;;;;;26.25;9.52;;;;;;;;;;5021513;28;20197;-72
2023/05/28 01:03:38;;;;;;;24.85;10.35;;;;;;;;;;5034148;28;20204;-73
2023/05/28 01:06:11;;;;;;;23.75;9.30;;;;;;;;;;5025777;28;20194;-72
2023/05/28 01:08:37;;;;;;;24.00;9.90;;;;;;;;;;5038598;28;20193;-72
2023/05/28 01:11:05;;;;;;;20.23;9.05;;;;;;;;;;5030798;28;20212;-72
2023/05/28 01:13:31;;;;;;;27.00;9.75;;;;;;;;;;5023498;28;20194;-73
2023/05/28 01:15:58;;;;;;;27.58;9.18;;;;;;;;;;5027617;28;20189;-73
2023/05/28 01:18:24;;;;;;;21.98;9.63;;;;;;;;;;5029069;28;20201;-73
2023/05/28 01:20:50;;;;;;;27.25;9.52;;;;;;;;;;5028466;28;20213;-73
2023/05/28 01:23:18;;;;;;;26.58;9.48;;;;;;;;;;5030187;28;20228;-73
2023/05/28 01:25:44;;;;;;;24.33;9.75;;;;;;;;;;5016676;28;20248;-73
2023/05/28 01:28:13;;;;;;;31.15;9.10;;;;;;;;;;5028492;28;20241;-73
2023/05/28 01:30:39;;;;;;;25.55;9.65;;;;;;;;;;5029165;28;20587;-73
2023/05/28 01:33:05;;;;;;;20.13;9.13;;;;;;;;;;5014949;28;20728;-73
2023/05/28 01:35:31;;;;;;;25.33;8.50;;;;;;;;;;5045939;28;20608;-73
2023/05/28 01:38:00;;;;;;;21.45;8.80;;;;;;;;;;5033597;28;20277;-73
2023/05/28 01:40:27;;;;;;;23.40;8.32;;;;;;;;;;5020553;28;20480;-73
2023/05/28 01:42:55;;;;;;;18.75;8.98;;;;;;;;;;5021942;28;20198;-72
2023/05/28 01:45:22;;;;;;;26.67;8.88;;;;;;;;;;5019267;28;20183;-73
2023/05/28 01:47:48;;;;;;;21.23;8.80;;;;;;;;;;5027657;28;20240;-73
2023/05/28 01:50:14;;;;;;;25.63;8.70;;;;;;;;;;5024064;28;20190;-73
2023/05/28 01:52:39;;;;;;;19.90;8.65;;;;;;;;;;5020271;28;20201;-73
2023/05/28 01:55:05;;;;;;;21.33;9.13;;;;;;;;;;5023549;28;20177;-73
2023/05/28 01:57:31;;;;;;;18.30;8.43;;;;;;;;;;5028312;28;20195;-73
2023/05/28 01:59:56;;;;;;;19.23;9.02;;;;;;;;;;5025961;28;20189;-73
2023/05/28 02:02:25;;;;;;;24.73;8.80;;;;;;;;;;5020312;28;20248;-73
2023/05/28 02:04:51;;;;;;;26.50;9.07;;;;;;;;;;5016986;28;20306;-73
2023/05/28 02:07:16;;;;;;;21.08;9.13;;;;;;;;;;5015200;28;20690;-73
2023/05/28 02:09:42;;;;;;;24.13;8.88;;;;;;;;;;5018692;28;20218;-73
2023/05/28 02:12:07;;;;;;;22.83;9.05;;;;;;;;;;5028509;28;20237;-73
2023/05/28 02:14:33;;;;;;;27.38;9.60;;;;;;;;;;5034584;28;20221;-73
2023/05/28 02:16:58;;;;;;;22.23;9.30;;;;;;;;;;5029239;28;20534;-73
2023/05/28 02:19:24;;;;;;;25.83;9.38;;;;;;;;;;5040912;28;20197;-72
2023/05/28 02:21:50;;;;;;;23.95;9.15;;;;;;;;;;5027073;28;20185;-73
2023/05/28 02:24:15;;;;;;;21.27;9.88;;;;;;;;;;5025051;28;20646;-73
2023/05/28 02:26:41;;;;;;;22.48;9.68;;;;;;;;;;5023829;28;20669;-73
2023/05/28 02:29:06;;;;;;;25.40;9.13;;;;;;;;;;5004524;28;20183;-73
2023/05/28 02:31:31;;;;;;;27.65;10.45;;;;;;;;;;5023567;28;20452;-73
2023/05/28 02:33:57;;;;;;;20.98;8.93;;;;;;;;;;5013674;28;20194;-73
2023/05/28 02:36:22;;;;;;;25.48;9.77;;;;;;;;;;5022659;28;20197;-72
2023/05/28 02:38:48;;;;;;;26.20;9.52;;;;;;;;;;5026464;28;20237;-72
2023/05/28 02:41:13;;;;;;;21.95;9.07;;;;;;;;;;5031827;28;20714;-72
2023/05/28 02:43:39;;;;;;;27.45;9.52;;;;;;;;;;5025712;28;20198;-73
2023/05/28 02:46:04;;;;;;;22.17;9.13;;;;;;;;;;5025227;28;20192;-72
2023/05/28 02:48:30;;;;;;;21.35;9.10;;;;;;;;;;5019584;28;20197;-73
2023/05/28 02:50:56;;;;;;;18.27;9.77;;;;;;;;;;5030220;28;20198;-73
2023/05/28 02:53:22;;;;;;;20.92;9.35;;;;;;;;;;5032829;28;20196;-73
2023/05/28 02:55:48;;;;;;;21.75;8.75;;;;;;;;;;5028203;28;20190;-72
2023/05/28 02:58:14;;;;;;;24.85;9.15;;;;;;;;;;5031434;28;20197;-72
2023/05/28 03:00:40;;;;;;;22.15;9.30;;;;;;;;;;5022715;28;20210;-73
2023/05/28 03:03:05;;;;;;;20.70;9.10;;;;;;;;;;5024734;28;20539;-73
2023/05/28 03:05:34;;;;;;;22.67;9.15;;;;;;;;;;5033544;28;20194;-73
2023/05/28 03:07:59;;;;;;;27.25;9.52;;;;;;;;;;5026689;28;20214;-73
2023/05/28 03:10:25;;;;;;;23.77;9.30;;;;;;;;;;5019809;28;20194;-73
2023/05/28 03:12:50;;;;;;;23.90;9.40;;;;;;;;;;5029726;28;20186;-73
2023/05/28 03:15:16;;;;;;;25.17;9.68;;;;;;;;;;5029999;28;20208;-73
2023/05/28 03:17:41;;;;;;;19.95;9.20;;;;;;;;;;5029008;28;20194;-73
2023/05/28 03:20:10;;;;;;;22.00;8.98;;;;;;;;;;5030272;28;20638;-73
2023/05/28 03:22:39;;;;;;;22.15;9.38;;;;;;;;;;5026467;28;20201;-73
2023/05/28 03:25:08;;;;;;;25.02;9.40;;;;;;;;;;5031071;28;20278;-73
2023/05/28 03:27:33;;;;;;;24.70;9.90;;;;;;;;;;5028859;28;20278;-73
2023/05/28 03:29:59;;;;;;;28.08;11.15;;;;;;;;;;5029102;28;20277;-73
2023/05/28 03:32:24;;;;;;;26.85;9.60;;;;;;;;;;5027676;28;20214;-72
2023/05/28 03:34:50;;;;;;;27.02;10.25;;;;;;;;;;5027393;28;20689;-72
2023/05/28 03:37:15;;;;;;;19.60;10.27;;;;;;;;;;5022355;28;20190;-72
2023/05/28 03:39:41;;;;;;;23.73;10.13;;;;;;;;;;5021304;28;20238;-72
2023/05/28 03:42:07;;;;;;;29.02;9.98;;;;;;;;;;5026702;28;20614;-72
2023/05/28 03:44:33;;;;;;;26.48;9.38;;;;;;;;;;5020289;28;20504;-72
2023/05/28 03:46:58;;;;;;;20.75;10.32;;;;;;;;;;5031714;28;20190;-72
2023/05/28 03:49:24;;;;;;;29.23;10.25;;;;;;;;;;5032298;28;20308;-72
2023/05/28 03:51:49;;;;;;;27.80;10.45;;;;;;;;;;5034042;28;20217;-72
2023/05/28 03:54:15;;;;;;;23.27;9.88;;;;;;;;;;5030123;28;20281;-72
2023/05/28 03:56:40;;;;;;;23.95;10.95;;;;;;;;;;5026886;28;20550;-72
2023/05/28 03:59:05;;;;;;;26.98;10.15;;;;;;;;;;5027024;28;20506;-72
2023/05/28 04:01:31;;;;;;;24.00;10.15;;;;;;;;;;5032825;28;20245;-72
2023/05/28 04:03:56;;;;;;;29.50;11.50;;;;;;;;;;5030574;28;20625;-72
2023/05/28 04:06:22;;;;;;;29.42;12.18;;;;;;;;;;5030733;28;20436;-72
2023/05/28 04:08:48;;;;;;;23.70;10.10;;;;;;;;;;5034180;28;20209;-72
2023/05/28 04:11:13;;;;;;;27.50;10.40;;;;;;;;;;5028926;28;20254;-72
2023/05/28 04:13:40;;;;;;;25.90;10.65;;;;;;;;;;5023547;28;20201;-72
2023/05/28 04:16:06;;;;;;;26.02;10.32;;;;;;;;;;5013576;28;20599;-72
2023/05/28 04:18:31;;;;;;;27.85;10.73;;;;;;;;;;5030372;28;20285;-73
2023/05/28 04:20:56;;;;;;;21.63;10.55;;;;;;;;;;5029402;28;20248;-72
2023/05/28 04:23:22;;;;;;;21.42;10.43;;;;;;;;;;5020105;28;20198;-72
2023/05/28 04:25:47;;;;;;;25.50;11.43;;;;;;;;;;5019640;28;20244;-72
2023/05/28 04:28:14;;;;;;;25.02;10.85;;;;;;;;;;5030451;28;20206;-72
2023/05/28 04:30:39;;;;;;;26.05;10.98;;;;;;;;;;5028639;28;20214;-72
2023/05/28 04:33:05;;;;;;;25.33;9.73;;;;;;;;;;5016072;28;20198;-72
2023/05/28 04:35:31;;;;;;;26.40;9.57;;;;;;;;;;5035145;28;20209;-73
2023/05/28 04:37:56;;;;;;;24.52;11.20;;;;;;;;;;5041473;28;20328;-74
2023/05/28 04:40:21;;;;;;;29.60;12.30;;;;;;;;;;5027698;28;20782;-74
2023/05/28 04:42:47;;;;;;;33.20;11.00;;;;;;;;;;5021924;28;20557;-73
2023/05/28 04:45:13;;;;;;;27.60;10.98;;;;;;;;;;5029495;28;20283;-72
2023/05/28 04:47:38;;;;;;;29.88;10.80;;;;;;;;;;5040332;28;20196;-73
2023/05/28 04:50:04;;;;;;;29.05;11.63;;;;;;;;;;5019442;28;20692;-73
2023/05/28 04:52:32;;;;;;;31.45;10.98;;;;;;;;;;5021488;28;20255;-73
2023/05/28 04:54:58;;;;;;;29.73;11.10;;;;;;;;;;5013775;28;20502;-72
2023/05/28 04:57:23;;;;;;;24.95;11.18;;;;;;;;;;5019070;28;20394;-72
2023/05/28 04:59:49;;;;;;;27.70;12.23;;;;;;;;;;5023812;28;20190;-73
2023/05/28 05:02:16;;;;;;;27.58;12.00;;;;;;;;;;5019014;28;20281;-72
2023/05/28 05:04:42;;;;;;;25.55;11.50;;;;;;;;;;5035479;28;20280;-72
2023/05/28 05:07:07;;;;;;;30.92;11.55;;;;;;;;;;5036868;28;20266;-72
2023/05/28 05:09:33;;;;;;;30.65;11.20;;;;;;;;;;5019593;28;20617;-73
2023/05/28 05:11:59;;;;;;;28.17;11.50;;;;;;;;;;5030183;28;20342;-71
2023/05/28 05:14:24;;;;;;;27.83;11.32;;;;;;;;;;5024635;28;20281;-72
2023/05/28 05:16:49;;;;;;;25.08;11.43;;;;;;;;;;5020883;28;20190;-74
2023/05/28 05:19:15;;;;;;;25.58;11.77;;;;;;;;;;5027462;28;20201;-73
2023/05/28 05:21:40;;;;;;;23.05;11.50;;;;;;;;;;5027777;28;20183;-74
2023/05/28 05:24:06;;;;;;;29.35;11.52;;;;;;;;;;5028433;28;20567;-73
2023/05/28 05:26:31;;;;;;;27.08;11.57;;;;;;;;;;5028137;28;20253;-73
2023/05/28 05:28:56;;;;;;;28.38;11.48;;;;;;;;;;5010862;28;20545;-73
2023/05/28 05:31:22;;;;;;;24.85;10.90;;;;;;;;;;5025501;28;20217;-74
2023/05/28 05:33:47;;;;;;;34.08;11.73;;;;;;;;;;5024034;28;20186;-72
2023/05/28 05:36:12;;;;;;;22.42;10.93;;;;;;;;;;5024221;28;20191;-73
2023/05/28 05:38:38;;;;;;;24.42;10.55;;;;;;;;;;5033028;28;20534;-72
2023/05/28 05:41:03;;;;;;;25.80;11.38;;;;;;;;;;5028966;28;20205;-73
2023/05/28 05:43:29;;;;;;;26.17;10.43;;;;;;;;;;5030887;28;20773;-73
2023/05/28 05:45:54;;;;;;;19.15;9.68;;;;;;;;;;5018741;28;20212;-72
2023/05/28 05:48:19;;;;;;;21.65;10.55;;;;;;;;;;5020143;28;20654;-72
2023/05/28 05:50:49;;;;;;;26.27;10.90;;;;;;;;;;5029939;28;20244;-72
2023/05/28 05:53:15;;;;;;;25.70;10.65;;;;;;;;;;5025446;28;20203;-71
2023/05/28 05:55:40;;;;;;;22.73;9.70;;;;;;;;;;5050044;28;20629;-72
2023/05/28 05:58:06;;;;;;;21.73;9.95;;;;;;;;;;5028652;28;20199;-71
2023/05/28 06:00:31;;;;;;;24.00;10.65;;;;;;;;;;5027002;28;20233;-71
2023/05/28 06:02:56;;;;;;;24.45;10.15;;;;;;;;;;5026228;28;20194;-71
2023/05/28 06:05:22;;;;;;;25.30;10.15;;;;;;;;;;5041682;28;20187;-72
2023/05/28 06:07:47;;;;;;;20.35;9.80;;;;;;;;;;5027134;28;20202;-72
2023/05/28 06:10:13;;;;;;;21.42;10.40;;;;;;;;;;5016581;28;20195;-72
2023/05/28 06:12:38;;;;;;;26.15;10.38;;;;;;;;;;5025389;28;20744;-72
2023/05/28 06:15:05;;;;;;;30.80;10.32;;;;;;;;;;5023642;28;20201;-72
2023/05/28 06:17:31;;;;;;;22.98;10.07;;;;;;;;;;5021938;28;20233;-72
2023/05/28 06:19:56;;;;;;;26.67;10.45;;;;;;;;;;5027118;28;20232;-72
2023/05/28 06:22:22;;;;;;;26.40;10.88;;;;;;;;;;5022287;28;20186;-71
2023/05/28 06:24:49;;;;;;;23.80;9.95;;;;;;;;;;5015063;28;20686;-71
2023/05/28 06:27:14;;;;;;;28.20;10.65;;;;;;;;;;5008969;28;20186;-71
2023/05/28 06:29:41;;;;;;;23.33;10.25;;;;;;;;;;5023828;28;20195;-71
2023/05/28 06:32:07;;;;;;;25.95;11.15;;;;;;;;;;5020470;28;20831;-70
2023/05/28 06:34:32;;;;;;;26.55;11.00;;;;;;;;;;5026890;28;20285;-72
2023/05/28 06:36:57;;;;;;;24.63;11.18;;;;;;;;;;5018320;28;20576;-73
2023/05/28 06:39:23;;;;;;;25.88;12.05;;;;;;;;;;5014363;28;20257;-71
2023/05/28 06:41:48;;;;;;;31.55;11.68;;;;;;;;;;5033319;28;20673;-72
2023/05/28 06:44:14;;;;;;;24.25;11.82;;;;;;;;;;5022400;28;20197;-72
2023/05/28 06:46:39;;;;;;;27.17;12.13;;;;;;;;;;5025010;28;20218;-72
2023/05/28 06:49:05;;;;;;;28.92;12.60;;;;;;;;;;5017973;28;20658;-72
2023/05/28 06:51:31;;;;;;;26.38;13.10;;;;;;;;;;5032083;28;20295;-73
2023/05/28 06:53:56;;;;;;;32.03;12.30;;;;;;;;;;5019918;28;20629;-74
2023/05/28 06:56:22;;;;;;;25.98;11.90;;;;;;;;;;5029731;28;20554;-71
2023/05/28 06:58:48;;;;;;;23.15;12.32;;;;;;;;;;5018423;28;20198;-72
2023/05/28 07:01:14;;;;;;;27.02;12.82;;;;;;;;;;5018952;28;20293;-73
2023/05/28 07:03:40;;;;;;;32.83;13.50;;;;;;;;;;5024005;28;20269;-71
2023/05/28 07:06:05;;;;;;;25.75;11.73;;;;;;;;;;5028339;28;20190;-72
2023/05/28 07:08:31;;;;;;;25.58;11.98;;;;;;;;;;5027739;28;20601;-71
2023/05/28 07:10:56;;;;;;;25.05;10.85;;;;;;;;;;5033910;28;20604;-69
2023/05/28 07:13:21;;;;;;;29.38;11.82;;;;;;;;;;5014845;28;20561;-73
2023/05/28 07:15:47;;;;;;;29.10;12.38;;;;;;;;;;5027049;28;20233;-71
2023/05/28 07:18:13;;;;;;;30.65;12.20;;;;;;;;;;5017358;28;20212;-71
2023/05/28 07:20:38;;;;;;;28.33;12.73;;;;;;;;;;5019944;28;20621;-71
2023/05/28 07:23:04;;;;;;;25.45;12.50;;;;;;;;;;5022369;28;20269;-72
2023/05/28 07:25:29;;;;;;;26.83;12.13;;;;;;;;;;5021296;28;20260;-71
2023/05/28 07:27:55;;;;;;;25.05;11.57;;;;;;;;;;5028364;28;20217;-73
2023/05/28 07:30:28;;;;;;;27.40;11.82;;;;;;;;;;5035770;28;20217;-69
2023/05/28 07:32:53;;;;;;;23.20;11.68;;;;;;;;;;5022894;28;20229;-71
2023/05/28 07:35:19;;;;;;;27.65;12.43;;;;;;;;;;5020516;28;20252;-71
2023/05/28 07:37:45;;;;;;;27.15;11.75;;;;;;;;;;5013892;28;20529;-71
2023/05/28 07:40:10;;;;;;;22.38;11.38;;;;;;;;;;5025706;28;20318;-68
2023/05/28 07:42:36;;;;;;;27.98;10.45;;;;;;;;;;5030037;28;20182;-72
2023/05/28 07:45:01;;;;;;;20.50;10.80;;;;;;;;;;5028592;28;20202;-71
2023/05/28 07:47:26;;;;;;;24.58;11.32;;;;;;;;;;5009407;28;20277;-73
2023/05/28 07:49:52;;;;;;;25.48;10.95;;;;;;;;;;5025463;28;20271;-71
2023/05/28 07:52:17;;;;;;;25.13;10.90;;;;;;;;;;5022726;28;20203;-71
2023/05/28 07:54:43;;;;;;;26.48;11.43;;;;;;;;;;5025497;28;20209;-72
2023/05/28 07:57:08;;;;;;;25.23;11.38;;;;;;;;;;5027665;28;20252;-71
2023/05/28 07:59:34;;;;;;;26.40;10.93;;;;;;;;;;5024576;28;20193;-70
2023/05/28 08:02:00;;;;;;;22.50;10.45;;;;;;;;;;5028597;28;20218;-70
2023/05/28 08:04:25;;;;;;;25.23;11.50;;;;;;;;;;5022406;28;20213;-71
2023/05/28 08:06:51;;;;;;;22.25;10.88;;;;;;;;;;5031587;28;20641;-70
2023/05/28 08:09:17;;;;;;;19.20;10.35;;;;;;;;;;5027980;28;20196;-69
2023/05/28 08:11:43;;;;;;;19.30;9.85;;;;;;;;;;5034791;28;20199;-70
2023/05/28 08:14:08;;;;;;;20.88;10.23;;;;;;;;;;5019932;28;20509;-70
2023/05/28 08:16:34;;;;;;;22.33;9.65;;;;;;;;;;5021993;28;20217;-70
2023/05/28 08:19:00;;;;;;;17.77;8.68;;;;;;;;;;5017899;28;20241;-69
2023/05/28 08:21:26;;;;;;;16.83;9.32;;;;;;;;;;5030240;28;20247;-69
2023/05/28 08:23:54;;;;;;;24.17;9.48;;;;;;;;;;5022000;28;20258;-71
2023/05/28 08:26:19;;;;;;;16.30;9.13;;;;;;;;;;5035700;28;20190;-71
2023/05/28 08:28:45;;;;;;;19.20;9.25;;;;;;;;;;5037001;28;20247;-71
2023/05/28 08:31:10;;;;;;;21.13;8.93;;;;;;;;;;5027097;28;20205;-71
2023/05/28 08:33:36;;;;;;;18.02;10.18;;;;;;;;;;5022082;28;20213;-70
2023/05/28 08:36:01;;;;;;;16.98;9.38;;;;;;;;;;5026386;28;20202;-71
2023/05/28 08:38:29;;;;;;;22.13;8.98;;;;;;;;;;5030286;28;20549;-70
2023/05/28 08:40:55;;;;;;;22.05;10.05;;;;;;;;;;5033425;28;20672;-71
2023/05/28 08:43:21;;;;;;;17.10;8.98;;;;;;;;;;5025523;28;20240;-71
2023/05/28 08:45:46;;;;;;;16.52;9.15;;;;;;;;;;5041296;28;20245;-70
2023/05/28 08:48:12;;;;;;;25.75;9.65;;;;;;;;;;5020133;28;20662;-71
2023/05/28 08:50:41;;;;;;;18.42;8.57;;;;;;;;;;5019875;28;20225;-72
2023/05/28 08:53:11;;;;;;;18.52;8.57;;;;;;;;;;5026299;28;20186;-71
2023/05/28 08:55:36;;;;;;;17.40;8.45;;;;;;;;;;5027873;28;20194;-70
2023/05/28 08:58:02;;;;;;;15.68;7.75;;;;;;;;;;5020993;28;20193;-71
2023/05/28 09:00:28;;;;;;;16.52;7.47;;;;;;;;;;5021835;28;20210;-70
2023/05/28 09:02:54;;;;;;;16.88;8.10;;;;;;;;;;5015441;28;20325;-71
2023/05/28 09:05:19;;;;;;;19.45;8.93;;;;;;;;;;5029642;28;20647;-72
2023/05/28 09:07:44;;;;;;;20.40;8.00;;;;;;;;;;5017536;28;20269;-71
2023/05/28 09:10:13;;;;;;;18.70;8.73;;;;;;;;;;5022313;28;20190;-71
2023/05/28 09:12:41;;;;;;;38.42;23.45;;;;;;;;;;5025722;28;20287;-69
2023/05/28 09:15:07;;;;;;;20.77;9.75;;;;;;;;;;5016775;28;20190;-70
2023/05/28 09:17:37;;;;;;;20.92;9.65;;;;;;;;;;5025991;28;20279;-71
2023/05/28 09:20:12;;;;;;;21.73;9.02;;;;;;;;;;5029634;28;20190;-70
2023/05/28 09:22:38;;;;;;;16.23;7.90;;;;;;;;;;5024168;28;20186;-70
2023/05/28 09:25:06;;;;;;;16.80;7.60;;;;;;;;;;5020487;28;20205;-71
2023/05/28 09:27:32;;;;;;;18.33;7.95;;;;;;;;;;5021536;28;20242;-70
2023/05/28 09:30:08;;;;;;;17.50;7.15;;;;;;;;;;5023020;28;20626;-70
2023/05/28 09:32:34;;;;;;;25.63;11.23;;;;;;;;;;5026150;28;20292;-71
2023/05/28 09:35:00;;;;;;;18.80;7.15;;;;;;;;;;5025532;28;20186;-68
2023/05/28 09:37:28;;;;;;;15.30;6.68;;;;;;;;;;5024898;28;20244;-69
2023/05/28 09:40:07;;;;;;;14.90;6.80;;;;;;;;;;5022392;28;20221;-68
2023/05/28 09:42:43;;;;;;;14.55;6.07;;;;;;;;;;5022746;28;20549;-69
2023/05/28 09:45:10;;;;;;;18.08;6.13;;;;;;;;;;5020275;28;20193;-68
2023/05/28 09:47:45;;;;;;;16.10;6.07;;;;;;;;;;5034563;28;20791;-70
2023/05/28 09:50:11;;;;;;;16.02;6.18;;;;;;;;;;5012120;28;20186;-69
2023/05/28 09:52:39;;;;;;;16.10;5.97;;;;;;;;;;5024429;28;20240;-69
2023/05/28 09:55:07;;;;;;;15.27;5.30;;;;;;;;;;5020418;28;20198;-69
2023/05/28 09:57:35;;;;;;;12.93;5.63;;;;;;;;;;5026524;28;20194;-69
2023/05/28 10:00:13;;;;;;;11.35;5.50;;;;;;;;;;5034881;28;20224;-71
2023/05/28 10:02:50;;;;;;;13.27;5.10;;;;;;;;;;5023853;28;20705;-69
2023/05/28 10:05:20;;;;;;;15.77;5.68;;;;;;;;;;5048393;28;20201;-69
2023/05/28 10:07:48;;;;;;;16.90;5.53;;;;;;;;;;5038624;28;20200;-70
2023/05/28 10:10:15;;;;;;;14.15;5.45;;;;;;;;;;5014427;28;20193;-70
2023/05/28 10:12:41;;;;;;;12.90;4.82;;;;;;;;;;5026718;28;20562;-70
2023/05/28 10:15:07;;;;;;;14.57;5.57;;;;;;;;;;5023918;28;20277;-69
2023/05/28 10:17:34;;;;;;;14.68;4.63;;;;;;;;;;5016062;28;20299;-70
2023/05/28 10:20:00;;;;;;;13.70;4.88;;;;;;;;;;5015940;28;20238;-70
2023/05/28 10:22:26;;;;;;;11.00;4.35;;;;;;;;;;5027529;28;20214;-69
2023/05/28 10:24:52;;;;;;;12.73;4.63;;;;;;;;;;5042594;28;20269;-69
2023/05/28 10:27:18;;;;;;;13.80;4.65;;;;;;;;;;5023485;28;20705;-70
2023/05/28 10:29:48;;;;;;;11.00;4.07;;;;;;;;;;5035334;28;20224;-69
2023/05/28 10:32:15;;;;;;;11.68;4.43;;;;;;;;;;5035567;28;20568;-68
2023/05/28 10:34:41;;;;;;;11.98;4.35;;;;;;;;;;5027072;28;20194;-69
2023/05/28 10:37:08;;;;;;;11.50;4.20;;;;;;;;;;5038405;28;20208;-69
2023/05/28 10:39:52;;;;;;;15.32;4.45;;;;;;;;;;5029088;28;20224;-69
2023/05/28 10:42:21;;;;;;;14.13;4.60;;;;;;;;;;5038959;28;20195;-70
2023/05/28 10:45:11;;;;;;;12.00;3.72;;;;;;;;;;5015975;28;20178;-70
2023/05/28 10:47:40;;;;;;;13.20;4.40;;;;;;;;;;5041255;28;20668;-71
2023/05/28 10:50:08;;;;;;;12.93;4.38;;;;;;;;;;5024324;28;20185;-70
2023/05/28 10:52:34;;;;;;;11.75;4.40;;;;;;;;;;5033800;28;20699;-69
2023/05/28 10:55:03;;;;;;;15.70;4.63;;;;;;;;;;5036532;28;20190;-71
2023/05/28 10:57:45;;;;;;;12.00;4.55;;;;;;;;;;5039174;28;20565;-69
2023/05/28 11:00:14;;;;;;;10.70;4.63;;;;;;;;;;5045330;28;20193;-69
2023/05/28 11:02:44;;;;;;;12.52;4.88;;;;;;;;;;5021379;28;20194;-69
2023/05/28 11:05:10;;;;;;;11.85;4.82;;;;;;;;;;5023432;28;20193;-70
2023/05/28 11:07:39;;;;;;;14.95;4.60;;;;;;;;;;5028070;28;20202;-71
2023/05/28 11:10:10;;;;;;;10.65;4.80;;;;;;;;;;5027335;28;20205;-69
2023/05/28 11:12:37;;;;;;;17.58;4.68;;;;;;;;;;5021172;28;20347;-69
2023/05/28 11:15:05;;;;;;;10.13;4.22;;;;;;;;;;5038955;28;20201;-70
2023/05/28 11:17:38;;;;;;;9.98;4.43;;;;;;;;;;5020070;28;20189;-71
2023/05/28 11:20:05;;;;;;;8.82;4.25;;;;;;;;;;5024422;28;20190;-70
2023/05/28 11:22:35;;;;;;;13.15;4.97;;;;;;;;;;5029307;28;20645;-69
2023/05/28 11:25:09;;;;;;;9.68;4.18;;;;;;;;;;5030066;28;20197;-68
2023/05/28 11:27:36;;;;;;;13.23;4.90;;;;;;;;;;5027422;28;20209;-70
2023/05/28 11:30:14;;;;;;;9.20;4.80;;;;;;;;;;5024889;28;20633;-72
2023/05/28 11:32:40;;;;;;;11.57;5.00;;;;;;;;;;5035049;28;20292;-69
2023/05/28 11:35:09;;;;;;;13.68;5.03;;;;;;;;;;5032079;28;20551;-69
2023/05/28 11:37:35;;;;;;;13.73;5.60;;;;;;;;;;5041364;28;20436;-69
2023/05/28 11:40:06;;;;;;;12.82;5.47;;;;;;;;;;5034115;28;20429;-71
2023/05/28 11:42:33;;;;;;;14.98;4.70;;;;;;;;;;5037965;28;20187;-69
2023/05/28 11:44:58;;;;;;;8.38;4.45;;;;;;;;;;5031231;28;20256;-69
2023/05/28 11:47:24;;;;;;;11.75;4.60;;;;;;;;;;5030800;28;20693;-72
2023/05/28 11:49:51;;;;;;;12.25;4.97;;;;;;;;;;5037282;28;20519;-70
2023/05/28 11:52:19;;;;;;;13.00;5.35;;;;;;;;;;5036724;28;20216;-71
2023/05/28 11:54:46;;;;;;;11.95;4.90;;;;;;;;;;5031769;28;20202;-70
2023/05/28 11:57:24;;;;;;;12.35;4.82;;;;;;;;;;5019842;28;20201;-70
2023/05/28 12:00:01;;;;;;;15.07;5.32;;;;;;;;;;5033222;28;20556;-69
2023/05/28 12:02:26;;;;;;;12.23;5.30;;;;;;;;;;5031527;28;20204;-70
2023/05/28 12:05:04;;;;;;;15.15;5.70;;;;;;;;;;5032774;28;20190;-72
2023/05/28 12:07:35;;;;;;;14.13;5.05;;;;;;;;;;5029514;28;20201;-68
2023/05/28 12:10:08;;;;;;;16.00;5.65;;;;;;;;;;5024062;28;20265;-70
2023/05/28 12:12:39;;;;;;;11.27;5.18;;;;;;;;;;5026855;28;20210;-68
2023/05/28 12:15:05;;;;;;;14.95;5.10;;;;;;;;;;5019376;28;20226;-68
2023/05/28 12:17:37;;;;;;;12.05;5.32;;;;;;;;;;5031335;28;20522;-69
2023/05/28 12:20:06;;;;;;;12.77;5.03;;;;;;;;;;5024665;28;20206;-67
2023/05/28 12:22:31;;;;;;;11.80;5.38;;;;;;;;;;5026152;28;20186;-70
2023/05/28 12:24:57;;;;;;;15.52;5.60;;;;;;;;;;5026452;28;20186;-69
2023/05/28 12:27:23;;;;;;;16.88;5.65;;;;;;;;;;5018334;28;20280;-67
2023/05/28 12:29:48;;;;;;;15.00;4.82;;;;;;;;;;5025479;28;20193;-70
2023/05/28 12:32:13;;;;;;;12.00;4.90;;;;;;;;;;5024585;28;20207;-71
2023/05/28 12:34:39;;;;;;;12.15;5.10;;;;;;;;;;5027765;28;20399;-71
2023/05/28 12:37:05;;;;;;;12.20;4.88;;;;;;;;;;5028698;28;20675;-71
2023/05/28 12:39:30;;;;;;;16.27;5.30;;;;;;;;;;5028049;28;20256;-70
2023/05/28 12:41:56;;;;;;;14.60;6.15;;;;;;;;;;5030435;28;20282;-68
2023/05/28 12:44:22;;;;;;;14.00;5.55;;;;;;;;;;5020707;28;20203;-71
2023/05/28 12:46:49;;;;;;;16.77;5.60;;;;;;;;;;5018419;28;20201;-71
2023/05/28 12:49:14;;;;;;;14.02;5.43;;;;;;;;;;5026303;28;20191;-70
2023/05/28 12:51:40;;;;;;;10.10;5.07;;;;;;;;;;5023977;28;20298;-72
2023/05/28 12:54:08;;;;;;;10.40;4.97;;;;;;;;;;5018739;28;20204;-71
2023/05/28 12:56:33;;;;;;;12.70;5.85;;;;;;;;;;5032492;28;20197;-71
2023/05/28 12:58:59;;;;;;;13.70;5.63;;;;;;;;;;5019201;28;20666;-70
2023/05/28 13:01:25;;;;;;;11.05;5.30;;;;;;;;;;5032858;28;20217;-69
2023/05/28 13:03:51;;;;;;;11.07;5.38;;;;;;;;;;5027697;28;20186;-69
2023/05/28 13:06:17;;;;;;;14.88;5.90;;;;;;;;;;5024912;28;20186;-69
2023/05/28 13:08:42;;;;;;;14.30;5.35;;;;;;;;;;5028957;28;20271;-69
2023/05/28 13:11:08;;;;;;;10.52;5.10;;;;;;;;;;5026313;28;20210;-70
2023/05/28 13:13:33;;;;;;;10.30;5.13;;;;;;;;;;5025706;28;20214;-71
2023/05/28 13:15:59;;;;;;;13.55;5.18;;;;;;;;;;5020155;28;20726;-71
2023/05/28 13:18:24;;;;;;;13.68;5.45;;;;;;;;;;5012318;28;20249;-71
2023/05/28 13:20:50;;;;;;;15.65;5.70;;;;;;;;;;5025225;28;20187;-69
2023/05/28 13:23:15;;;;;;;13.48;5.50;;;;;;;;;;5025880;28;20653;-67
2023/05/28 13:25:40;;;;;;;13.10;5.80;;;;;;;;;;5009728;28;20211;-69
2023/05/28 13:28:06;;;;;;;9.02;4.95;;;;;;;;;;5018206;28;20214;-70
2023/05/28 13:30:31;;;;;;;11.55;5.20;;;;;;;;;;5011432;28;20573;-69
2023/05/28 13:32:57;;;;;;;11.30;5.00;;;;;;;;;;5026413;28;20206;-70
2023/05/28 13:35:24;;;;;;;13.00;5.25;;;;;;;;;;5026539;28;20209;-75
2023/05/28 13:37:50;;;;;;;12.32;5.25;;;;;;;;;;5020661;28;20233;-70
2023/05/28 13:40:15;;;;;;;12.75;5.38;;;;;;;;;;5006061;28;20589;-70
2023/05/28 13:42:41;;;;;;;11.65;5.70;;;;;;;;;;5021021;28;20601;-70
2023/05/28 13:45:07;;;;;;;14.57;5.75;;;;;;;;;;5021380;28;20340;-70
2023/05/28 13:47:32;;;;;;;11.02;6.18;;;;;;;;;;5027716;28;20194;-67
2023/05/28 13:49:58;;;;;;;17.02;6.00;;;;;;;;;;5024437;28;20201;-70
2023/05/28 13:52:24;;;;;;;11.38;5.20;;;;;;;;;;5028182;28;20287;-74
2023/05/28 13:54:49;;;;;;;10.85;5.63;;;;;;;;;;5012788;28;20198;-69
2023/05/28 13:57:14;;;;;;;15.35;6.00;;;;;;;;;;5029111;28;20216;-70
2023/05/28 13:59:40;;;;;;;12.18;4.85;;;;;;;;;;5028549;28;20742;-69
2023/05/28 14:02:06;;;;;;;11.60;5.40;;;;;;;;;;5024998;28;20300;-71
2023/05/28 14:04:31;;;;;;;10.55;5.15;;;;;;;;;;5040460;28;20228;-69
2023/05/28 14:06:57;;;;;;;12.20;5.07;;;;;;;;;;5027958;28;20182;-72
2023/05/28 14:09:22;;;;;;;9.80;5.18;;;;;;;;;;5018966;28;20197;-70
2023/05/28 14:11:47;;;;;;;11.68;4.90;;;;;;;;;;5028384;28;20228;-70
2023/05/28 14:14:13;;;;;;;9.57;5.13;;;;;;;;;;5028834;28;20236;-70
2023/05/28 14:16:39;;;;;;;10.80;4.88;;;;;;;;;;5027393;28;20194;-70
2023/05/28 14:19:04;;;;;;;11.48;6.15;;;;;;;;;;5028061;28;20197;-71
2023/05/28 14:21:30;;;;;;;9.65;5.32;;;;;;;;;;5025998;28;20217;-73